Time;durP1;ratioP1;P1;durP2;ratioP2;P2;SDS_P1;SDS_P2;PMS_P1;PMS_P2;Temp;Humidity;BMP_temperature;BMP_pressure;BME280_temperature;BME280_humidity;BME280_pressure;Samples;Min_cycle;Max_cycle;Signal;HPM_P1;HPM_P2
2023/10/26 00:01:26;;;;;;;47.30;37.13;;;9.90;99.90;;;;;;5058292;28;20087;-86
2023/10/26 00:03:52;;;;;;;50.20;35.72;;;9.80;99.90;;;;;;5058955;28;20114;-86
2023/10/26 00:06:18;;;;;;;45.50;35.65;;;9.20;99.90;;;;;;5057828;28;20044;-86
2023/10/26 00:08:43;;;;;;;48.38;38.42;;;9.90;99.90;;;;;;5074893;28;20037;-86
2023/10/26 00:11:09;;;;;;;45.33;35.42;;;9.90;99.90;;;;;;5074560;28;20041;-86
2023/10/26 00:13:35;;;;;;;54.28;35.13;;;9.90;99.90;;;;;;5058434;28;20086;-86
2023/10/26 00:16:00;;;;;;;48.85;36.72;;;10.10;99.90;;;;;;5058568;28;20052;-86
2023/10/26 00:18:26;;;;;;;50.03;37.47;;;10.70;99.90;;;;;;5058149;28;20036;-86
2023/10/26 00:20:59;;;;;;;51.72;38.88;;;10.70;99.90;;;;;;5057309;28;20345;-86
2023/10/26 00:23:25;;;;;;;60.03;37.70;;;9.90;99.90;;;;;;5058257;28;20132;-85
2023/10/26 00:25:51;;;;;;;47.45;36.65;;;9.80;99.90;;;;;;5074077;28;20437;-85
2023/10/26 00:28:17;;;;;;;48.33;38.60;;;9.80;99.90;;;;;;5058448;28;20352;-85
2023/10/26 00:30:42;;;;;;;52.42;39.03;;;10.20;99.90;;;;;;5058164;28;20068;-85
2023/10/26 00:33:08;;;;;;;46.05;37.90;;;9.80;99.90;;;;;;5073980;28;20044;-85
2023/10/26 00:35:34;;;;;;;54.90;38.45;;;10.20;99.90;;;;;;5057339;28;20040;-85
2023/10/26 00:38:00;;;;;;;58.00;39.30;;;10.90;99.90;;;;;;5058263;28;20047;-86
2023/10/26 00:40:25;;;;;;;56.00;39.75;;;9.80;99.90;;;;;;5057738;28;20040;-85
2023/10/26 00:42:57;;;;;;;48.80;38.83;;;10.90;99.90;;;;;;5057865;28;20041;-86
2023/10/26 00:45:23;;;;;;;57.35;39.60;;;10.80;99.90;;;;;;5074189;28;20049;-86
2023/10/26 00:47:50;;;;;;;59.85;41.15;;;9.70;99.90;;;;;;5057720;28;20403;-85
2023/10/26 00:50:16;;;;;;;61.10;43.63;;;9.70;99.90;;;;;;5057579;28;20398;-86
2023/10/26 00:52:42;;;;;;;57.00;43.10;;;10.70;99.90;;;;;;5074263;28;20045;-86
2023/10/26 00:55:09;;;;;;;58.38;40.85;;;9.70;99.90;;;;;;5056991;28;20581;-85
2023/10/26 00:57:36;;;;;;;64.15;44.50;;;9.70;99.90;;;;;;5057745;28;20394;-86
2023/10/26 01:00:02;;;;;;;67.88;45.30;;;10.10;99.90;;;;;;5074558;28;20060;-86
2023/10/26 01:02:29;;;;;;;60.15;44.42;;;9.70;99.90;;;;;;5073880;28;20043;-86
2023/10/26 01:04:54;;;;;;;61.03;44.95;;;10.10;99.90;;;;;;5056958;28;20042;-86
2023/10/26 01:07:20;;;;;;;68.95;46.22;;;9.70;99.90;;;;;;5074354;28;20040;-86
2023/10/26 01:09:47;;;;;;;72.95;46.00;;;10.40;99.90;;;;;;5056796;28;20062;-85
2023/10/26 01:12:13;;;;;;;71.85;48.38;;;9.80;99.90;;;;;;5056696;28;20087;-86
2023/10/26 01:14:39;;;;;;;79.80;49.92;;;9.70;99.90;;;;;;5073627;28;20041;-85
2023/10/26 01:17:05;;;;;;;77.50;50.22;;;9.60;99.90;;;;;;5056779;28;20520;-86
2023/10/26 01:19:43;;;;;;;78.70;50.22;;;9.80;99.90;;;;;;5056831;28;20071;-85
2023/10/26 01:22:09;;;;;;;77.13;50.72;;;10.00;99.90;;;;;;5073930;28;20044;-88
2023/10/26 01:24:35;;;;;;;93.53;55.40;;;10.30;99.90;;;;;;5073109;28;20486;-86
2023/10/26 01:27:01;;;;;;;78.90;48.45;;;10.30;99.90;;;;;;5056598;28;20099;-86
2023/10/26 01:29:26;;;;;;;96.47;61.50;;;9.70;99.90;;;;;;5056902;28;20398;-86
2023/10/26 01:31:52;;;;;;;93.78;56.15;;;10.50;99.90;;;;;;5056749;28;20046;-86
2023/10/26 01:34:18;;;;;;;93.70;56.45;;;10.10;99.90;;;;;;5056810;28;20049;-86
2023/10/26 01:36:43;;;;;;;97.40;56.90;;;10.20;99.90;;;;;;5072390;28;20090;-86
2023/10/26 01:39:09;;;;;;;95.43;57.22;;;10.40;99.90;;;;;;5055613;28;20093;-86
2023/10/26 01:41:35;;;;;;;113.07;60.65;;;10.80;99.90;;;;;;5072486;28;20060;-86
2023/10/26 01:44:01;;;;;;;109.80;62.10;;;10.10;99.90;;;;;;5056374;28;20040;-86
2023/10/26 01:46:27;;;;;;;112.30;60.47;;;9.70;99.90;;;;;;5072843;28;20051;-87
2023/10/26 01:48:53;;;;;;;115.38;60.70;;;10.30;99.90;;;;;;5055696;28;20389;-87
2023/10/26 01:51:18;;;;;;;119.57;63.65;;;9.70;99.90;;;;;;5072687;28;20076;-86
2023/10/26 01:53:44;;;;;;;114.00;63.17;;;9.70;99.90;;;;;;5073300;28;20550;-87
2023/10/26 01:56:10;;;;;;;121.03;61.53;;;10.30;99.90;;;;;;5056234;28;20140;-86
2023/10/26 01:58:35;;;;;;;125.18;62.42;;;9.80;99.90;;;;;;5056869;28;20097;-86
2023/10/26 02:01:01;;;;;;;124.43;63.63;;;9.70;99.90;;;;;;5072531;28;20395;-86
2023/10/26 02:03:27;;;;;;;113.80;56.28;;;9.80;99.90;;;;;;5056216;28;20517;-85
2023/10/26 02:05:52;;;;;;;117.47;59.83;;;9.70;99.90;;;;;;5072941;28;20482;-87
2023/10/26 02:08:18;;;;;;;126.65;67.35;;;9.70;99.90;;;;;;5056055;28;20083;-86
2023/10/26 02:10:44;;;;;;;115.53;61.10;;;10.60;99.90;;;;;;5072736;28;20036;-86
2023/10/26 02:13:10;;;;;;;115.78;66.30;;;10.00;99.90;;;;;;5056141;28;20037;-86
2023/10/26 02:15:35;;;;;;;139.82;65.43;;;9.70;99.90;;;;;;5056795;28;20036;-86
2023/10/26 02:18:02;;;;;;;133.23;65.88;;;9.70;99.90;;;;;;5072927;28;20036;-86
2023/10/26 02:20:27;;;;;;;127.50;65.85;;;9.60;99.90;;;;;;5055787;28;20063;-85
2023/10/26 02:22:53;;;;;;;129.00;68.95;;;9.90;99.90;;;;;;5073003;28;20040;-86
2023/10/26 02:25:20;;;;;;;129.85;64.70;;;10.30;99.90;;;;;;5073466;28;20041;-86
2023/10/26 02:27:46;;;;;;;127.82;59.78;;;9.70;99.90;;;;;;5072862;28;20067;-86
2023/10/26 02:30:12;;;;;;;126.57;68.28;;;10.40;99.90;;;;;;5055992;28;20044;-86
2023/10/26 02:32:39;;;;;;;107.45;61.72;;;9.70;99.90;;;;;;5055834;28;20477;-86
2023/10/26 02:35:05;;;;;;;139.98;63.60;;;10.10;99.90;;;;;;5055717;28;20048;-87
2023/10/26 02:37:33;;;;;;;111.88;63.03;;;9.60;99.90;;;;;;5072788;28;20371;-86
2023/10/26 02:39:59;;;;;;;97.40;58.50;;;10.40;99.90;;;;;;5072450;28;20092;-86
2023/10/26 02:42:24;;;;;;;106.03;62.40;;;9.60;99.90;;;;;;5056585;28;20282;-87
2023/10/26 02:44:50;;;;;;;109.05;63.50;;;9.60;99.90;;;;;;5057932;28;20040;-86
2023/10/26 02:47:16;;;;;;;100.07;61.22;;;9.90;99.90;;;;;;5059855;28;20043;-86
2023/10/26 02:49:41;;;;;;;117.53;61.13;;;10.20;99.90;;;;;;5059609;28;20063;-86
2023/10/26 02:52:07;;;;;;;116.65;64.70;;;10.50;99.90;;;;;;5076599;28;20504;-86
2023/10/26 02:54:33;;;;;;;123.50;67.07;;;9.90;99.90;;;;;;5076930;28;20044;-87
2023/10/26 02:56:58;;;;;;;140.43;79.80;;;9.80;99.90;;;;;;5060108;28;20429;-87
2023/10/26 02:59:24;;;;;;;135.73;74.55;;;9.70;99.90;;;;;;5059705;28;20036;-86
2023/10/26 03:01:50;;;;;;;188.90;73.55;;;9.80;99.90;;;;;;5076619;28;20058;-86
2023/10/26 03:04:15;;;;;;;118.00;68.72;;;10.50;99.90;;;;;;5076139;28;20037;-87
2023/10/26 03:06:41;;;;;;;125.68;69.03;;;10.40;99.90;;;;;;5076701;28;20080;-86
2023/10/26 03:09:10;;;;;;;141.90;72.65;;;10.20;99.90;;;;;;5076491;28;20474;-86
2023/10/26 03:11:36;;;;;;;140.75;69.78;;;10.60;99.90;;;;;;5059744;28;20395;-86
2023/10/26 03:14:02;;;;;;;113.85;66.80;;;9.60;99.90;;;;;;5060077;28;20040;-86
2023/10/26 03:16:28;;;;;;;131.73;67.78;;;10.30;99.90;;;;;;5060499;28;20044;-86
2023/10/26 03:18:54;;;;;;;108.85;57.30;;;10.00;99.90;;;;;;5058611;28;20379;-86
2023/10/26 03:21:20;;;;;;;125.22;61.78;;;10.20;99.90;;;;;;5059374;28;20039;-86
2023/10/26 03:23:52;;;;;;;119.43;62.53;;;10.70;99.90;;;;;;5059759;28;20029;-87
2023/10/26 03:26:19;;;;;;;120.03;68.07;;;10.40;99.90;;;;;;5058827;28;20051;-86
2023/10/26 03:28:45;;;;;;;122.93;65.28;;;10.30;99.90;;;;;;5076436;28;20142;-87
2023/10/26 03:31:11;;;;;;;114.40;59.97;;;9.80;99.90;;;;;;5075771;28;20254;-86
2023/10/26 03:33:40;;;;;;;116.45;61.30;;;9.70;99.90;;;;;;5074802;28;20058;-86
2023/10/26 03:36:16;;;;;;;114.75;59.85;;;9.40;99.90;;;;;;5075572;28;20047;-86
2023/10/26 03:38:43;;;;;;;95.95;58.08;;;9.40;99.90;;;;;;5075724;28;20047;-86
2023/10/26 03:41:09;;;;;;;116.03;55.17;;;10.10;99.90;;;;;;5059510;28;20482;-86
2023/10/26 03:43:34;;;;;;;106.95;58.13;;;10.10;99.90;;;;;;5075069;28;20043;-86
2023/10/26 03:46:00;;;;;;;126.22;59.67;;;10.40;99.90;;;;;;5075281;28;20036;-86
2023/10/26 03:48:26;;;;;;;124.40;65.97;;;9.70;99.90;;;;;;5058506;28;20417;-86
2023/10/26 03:50:51;;;;;;;127.00;65.63;;;10.10;99.90;;;;;;5059190;28;20084;-87
2023/10/26 03:53:17;;;;;;;122.78;64.50;;;10.00;99.90;;;;;;5075979;28;20060;-86
2023/10/26 03:55:43;;;;;;;177.13;68.10;;;10.20;99.90;;;;;;5058624;28;20037;-86
2023/10/26 03:58:11;;;;;;;120.75;65.32;;;10.00;99.90;;;;;;5075649;28;20041;-86
2023/10/26 04:00:37;;;;;;;138.77;65.60;;;9.90;99.90;;;;;;5058594;28;20040;-86
2023/10/26 04:03:03;;;;;;;132.60;63.30;;;9.70;99.90;;;;;;5074453;28;20044;-85
2023/10/26 04:05:28;;;;;;;118.63;61.58;;;9.50;99.90;;;;;;5075049;28;20033;-86
2023/10/26 04:07:56;;;;;;;171.38;68.50;;;10.60;99.90;;;;;;5058578;28;20493;-86
2023/10/26 04:10:22;;;;;;;120.47;64.93;;;9.40;99.90;;;;;;5058292;28;20033;-86
2023/10/26 04:12:48;;;;;;;124.25;64.20;;;9.40;99.90;;;;;;5075047;28;20044;-86
2023/10/26 04:15:14;;;;;;;116.30;58.45;;;9.40;99.90;;;;;;5058550;28;20044;-86
2023/10/26 04:17:39;;;;;;;130.48;70.18;;;9.40;99.90;;;;;;5074056;28;20403;-86
2023/10/26 04:20:07;;;;;;;130.25;69.07;;;9.40;99.90;;;;;;5058061;28;20106;-86
2023/10/26 04:22:33;;;;;;;115.15;61.65;;;9.40;99.90;;;;;;5058823;28;20068;-85
2023/10/26 04:24:59;;;;;;;124.70;62.17;;;10.20;99.90;;;;;;5058644;28;20056;-86
2023/10/26 04:27:25;;;;;;;105.63;59.97;;;9.40;99.90;;;;;;5058406;28;20083;-86
2023/10/26 04:29:51;;;;;;;157.60;70.88;;;9.70;99.90;;;;;;5074751;28;20038;-86
2023/10/26 04:32:16;;;;;;;108.05;59.53;;;9.40;99.90;;;;;;5057614;28;20093;-86
2023/10/26 04:34:44;;;;;;;110.50;56.67;;;9.40;99.90;;;;;;5074464;28;20135;-86
2023/10/26 04:37:10;;;;;;;107.68;56.95;;;10.20;99.90;;;;;;5074943;28;20056;-86
2023/10/26 04:39:36;;;;;;;104.90;56.92;;;9.90;99.90;;;;;;5074922;28;20051;-85
2023/10/26 04:42:04;;;;;;;123.32;61.60;;;9.60;99.90;;;;;;5058170;28;20033;-85
2023/10/26 04:44:30;;;;;;;105.80;54.03;;;9.30;99.90;;;;;;5058077;28;20128;-86
2023/10/26 04:46:55;;;;;;;89.57;56.25;;;9.30;99.90;;;;;;5056585;28;20076;-85
2023/10/26 04:49:21;;;;;;;104.85;58.60;;;9.70;99.90;;;;;;5057656;28;20060;-85
2023/10/26 04:51:47;;;;;;;111.28;54.25;;;9.20;99.90;;;;;;5057515;28;20067;-86
2023/10/26 04:54:13;;;;;;;82.85;51.20;;;9.90;99.90;;;;;;5056886;28;20036;-86
2023/10/26 04:56:38;;;;;;;101.32;56.80;;;9.30;99.90;;;;;;5073769;28;20105;-85
2023/10/26 04:59:07;;;;;;;83.53;51.42;;;9.30;99.90;;;;;;5070408;28;20477;-86
2023/10/26 05:01:32;;;;;;;122.47;58.15;;;9.10;99.90;;;;;;5052613;28;20086;-86
2023/10/26 05:03:58;;;;;;;93.43;54.80;;;9.80;99.90;;;;;;5069881;28;20033;-85
2023/10/26 05:06:24;;;;;;;102.43;55.03;;;9.80;99.90;;;;;;5069254;28;20398;-86
2023/10/26 05:08:50;;;;;;;112.28;56.00;;;9.40;99.90;;;;;;5069028;28;20036;-85
2023/10/26 05:11:16;;;;;;;119.15;56.88;;;9.70;99.90;;;;;;5052773;28;20033;-85
2023/10/26 05:13:42;;;;;;;107.85;54.40;;;10.50;99.90;;;;;;5069235;28;20178;-85
2023/10/26 05:16:07;;;;;;;118.72;60.72;;;10.00;99.90;;;;;;5069375;28;20075;-86
2023/10/26 05:18:33;;;;;;;120.45;61.35;;;9.30;99.90;;;;;;5069563;28;20418;-86
2023/10/26 05:20:59;;;;;;;139.00;63.05;;;10.30;99.90;;;;;;5052638;28;20037;-86
2023/10/26 05:23:25;;;;;;;140.73;63.80;;;10.40;99.90;;;;;;5052868;28;20041;-85
2023/10/26 05:25:51;;;;;;;127.63;62.88;;;9.80;99.90;;;;;;5069231;28;20075;-85
2023/10/26 05:28:17;;;;;;;123.70;61.10;;;10.10;99.90;;;;;;5052531;28;20076;-86
2023/10/26 05:30:43;;;;;;;144.50;65.15;;;9.70;99.90;;;;;;5068765;28;20032;-86
2023/10/26 05:33:08;;;;;;;147.40;67.55;;;9.90;99.90;;;;;;5069286;28;20329;-86
2023/10/26 05:35:35;;;;;;;145.63;65.90;;;10.00;99.90;;;;;;5052463;28;20052;-86
2023/10/26 05:38:01;;;;;;;153.80;68.18;;;9.90;99.90;;;;;;5069566;28;20048;-85
2023/10/26 05:40:26;;;;;;;154.30;70.95;;;9.30;99.90;;;;;;5069581;28;20079;-86
2023/10/26 05:42:52;;;;;;;151.10;69.38;;;10.30;99.90;;;;;;5069301;28;20087;-85
2023/10/26 05:45:18;;;;;;;185.00;72.47;;;9.20;99.90;;;;;;5068483;28;20045;-85
2023/10/26 05:47:43;;;;;;;174.50;73.78;;;9.90;99.90;;;;;;5068868;28;20100;-85
2023/10/26 05:50:10;;;;;;;152.80;66.82;;;9.30;99.90;;;;;;5069393;28;20048;-86
2023/10/26 05:52:36;;;;;;;148.00;74.00;;;8.60;99.90;;;;;;5069428;28;20124;-85
2023/10/26 05:55:02;;;;;;;165.70;72.35;;;10.10;99.90;;;;;;5069656;28;20071;-86
2023/10/26 05:57:28;;;;;;;157.32;75.38;;;9.10;99.90;;;;;;5053336;28;20386;-85
2023/10/26 05:59:54;;;;;;;159.15;67.80;;;9.10;99.90;;;;;;5052883;28;20055;-86
2023/10/26 06:02:19;;;;;;;152.38;64.43;;;9.10;99.90;;;;;;5068945;28;20083;-86
2023/10/26 06:04:45;;;;;;;141.00;66.90;;;9.10;99.90;;;;;;5051953;28;20067;-85
2023/10/26 06:07:11;;;;;;;131.27;68.28;;;10.10;99.90;;;;;;5052511;28;20040;-85
2023/10/26 06:09:36;;;;;;;112.65;58.00;;;9.70;99.90;;;;;;5068918;28;20448;-85
2023/10/26 06:12:02;;;;;;;194.65;72.93;;;9.80;99.90;;;;;;5068736;28;20036;-86
2023/10/26 06:14:28;;;;;;;147.90;63.60;;;9.00;99.90;;;;;;5051535;28;20037;-85
2023/10/26 06:16:54;;;;;;;108.88;64.75;;;9.00;99.90;;;;;;5052013;28;20032;-85
2023/10/26 06:19:19;;;;;;;109.32;57.63;;;9.00;99.90;;;;;;5051347;28;20066;-85
2023/10/26 06:21:45;;;;;;;129.30;61.53;;;9.70;99.90;;;;;;5051840;28;20486;-86
2023/10/26 06:24:11;;;;;;;128.43;64.25;;;9.00;99.90;;;;;;5051848;28;20174;-85
2023/10/26 06:26:37;;;;;;;116.80;55.88;;;10.10;99.90;;;;;;5051474;28;20047;-85
2023/10/26 06:29:03;;;;;;;111.28;57.05;;;9.70;99.90;;;;;;5051492;28;20040;-86
2023/10/26 06:31:29;;;;;;;119.80;58.33;;;9.00;99.90;;;;;;5051507;28;20043;-86
2023/10/26 06:33:54;;;;;;;125.78;64.65;;;8.90;99.90;;;;;;5067682;28;20056;-85
2023/10/26 06:36:20;;;;;;;166.05;66.32;;;9.10;99.90;;;;;;5067958;28;20045;-86
2023/10/26 06:38:45;;;;;;;129.15;61.50;;;8.90;99.90;;;;;;5068502;28;20070;-86
2023/10/26 06:41:11;;;;;;;114.65;62.60;;;9.20;99.90;;;;;;5067693;28;20045;-86
2023/10/26 06:43:37;;;;;;;135.27;64.53;;;8.60;99.90;;;;;;5068085;28;20398;-85
2023/10/26 06:46:04;;;;;;;141.65;64.55;;;8.90;99.90;;;;;;5067917;28;20039;-84
2023/10/26 06:48:30;;;;;;;112.38;56.92;;;8.80;99.90;;;;;;5051397;28;20486;-86
2023/10/26 06:51:04;;;;;;;101.40;58.55;;;9.10;99.90;;;;;;5051368;28;20037;-85
2023/10/26 06:53:29;;;;;;;98.07;58.85;;;8.70;99.90;;;;;;5051494;28;20036;-85
2023/10/26 06:55:56;;;;;;;103.85;58.65;;;9.30;99.90;;;;;;5050839;28;20190;-85
2023/10/26 06:58:22;;;;;;;185.27;72.15;;;8.80;99.90;;;;;;5068185;28;20053;-85
2023/10/26 07:00:47;;;;;;;121.88;61.00;;;9.80;99.90;;;;;;5067995;28;20067;-85
2023/10/26 07:03:13;;;;;;;112.32;60.05;;;9.10;99.90;;;;;;5067993;28;20390;-85
2023/10/26 07:05:40;;;;;;;177.88;72.05;;;9.60;99.90;;;;;;5051133;28;20460;-85
2023/10/26 07:08:06;;;;;;;141.68;63.13;;;8.60;99.90;;;;;;5051501;28;20406;-85
2023/10/26 07:10:31;;;;;;;148.15;70.22;;;9.20;99.90;;;;;;5067203;28;20039;-85
2023/10/26 07:12:57;;;;;;;132.15;67.95;;;9.30;99.90;;;;;;5051379;28;20482;-85
2023/10/26 07:15:23;;;;;;;120.60;64.40;;;8.60;99.90;;;;;;5051182;28;20147;-85
2023/10/26 07:17:49;;;;;;;130.93;63.33;;;8.40;99.90;;;;;;5051332;28;20040;-86
2023/10/26 07:20:14;;;;;;;164.70;73.30;;;8.10;99.90;;;;;;5051164;28;20047;-85
2023/10/26 07:22:42;;;;;;;111.10;60.15;;;8.70;99.90;;;;;;5068066;28;20078;-86
2023/10/26 07:25:08;;;;;;;120.13;63.05;;;9.20;99.90;;;;;;5067006;28;20054;-86
2023/10/26 07:27:34;;;;;;;139.23;60.13;;;8.10;99.90;;;;;;5050802;28;20076;-86
2023/10/26 07:30:00;;;;;;;125.90;61.80;;;7.90;99.90;;;;;;5068167;28;20514;-86
2023/10/26 07:32:26;;;;;;;146.70;63.15;;;9.20;99.90;;;;;;5054845;28;20079;-86
2023/10/26 07:34:52;;;;;;;162.02;73.80;;;8.90;99.90;;;;;;5071417;28;20088;-86
2023/10/26 07:37:18;;;;;;;186.65;74.38;;;9.50;99.90;;;;;;5054582;28;20482;-85
2023/10/26 07:39:44;;;;;;;154.98;70.78;;;10.10;99.90;;;;;;5070591;28;20050;-85
2023/10/26 07:42:10;;;;;;;153.70;68.28;;;10.20;99.90;;;;;;5054731;28;20044;-85
2023/10/26 07:44:37;;;;;;;163.93;72.60;;;10.10;99.90;;;;;;5054438;28;20478;-85
2023/10/26 07:47:03;;;;;;;165.77;72.50;;;10.30;99.90;;;;;;5071428;28;20045;-85
2023/10/26 07:49:30;;;;;;;138.75;68.50;;;9.30;99.90;;;;;;5071262;28;20084;-86
2023/10/26 07:51:55;;;;;;;157.13;74.45;;;10.60;99.90;;;;;;5054072;28;20040;-85
2023/10/26 07:54:21;;;;;;;158.15;72.55;;;10.50;99.90;;;;;;5054558;28;20042;-85
2023/10/26 07:56:47;;;;;;;165.75;72.20;;;9.80;99.90;;;;;;5054390;28;20041;-85
2023/10/26 07:59:13;;;;;;;157.27;71.53;;;10.70;99.90;;;;;;5071469;28;20302;-85
2023/10/26 08:01:38;;;;;;;165.85;68.15;;;9.70;99.90;;;;;;5054836;28;20123;-86
2023/10/26 08:04:04;;;;;;;182.30;71.60;;;10.30;99.90;;;;;;5054242;28;20102;-85
2023/10/26 08:06:30;;;;;;;155.30;69.95;;;9.80;99.90;;;;;;5054111;28;20387;-86
2023/10/26 08:08:58;;;;;;;157.88;66.88;;;9.80;99.90;;;;;;5053683;28;20091;-86
2023/10/26 08:11:24;;;;;;;170.80;65.45;;;9.80;99.90;;;;;;5053918;28;20033;-86
2023/10/26 08:13:50;;;;;;;182.15;68.93;;;9.90;99.90;;;;;;5070868;28;20029;-86
2023/10/26 08:16:16;;;;;;;174.13;63.25;;;9.80;99.90;;;;;;5070602;28;20044;-86
2023/10/26 08:18:42;;;;;;;184.40;63.38;;;9.90;99.90;;;;;;5054548;28;20036;-86
2023/10/26 08:21:08;;;;;;;175.68;66.90;;;10.90;99.90;;;;;;5070480;28;20044;-86
2023/10/26 08:23:34;;;;;;;194.80;65.28;;;9.80;99.90;;;;;;5053816;28;20048;-86
2023/10/26 08:26:09;;;;;;;169.63;62.70;;;9.80;99.90;;;;;;5070729;28;20040;-86
2023/10/26 08:28:36;;;;;;;146.00;64.72;;;9.80;99.90;;;;;;5053851;28;20039;-86
2023/10/26 08:31:02;;;;;;;190.70;70.20;;;10.60;99.90;;;;;;5053633;28;20040;-86
2023/10/26 08:33:29;;;;;;;144.73;63.17;;;9.80;99.90;;;;;;5070777;28;20413;-85
2023/10/26 08:35:55;;;;;;;150.05;66.78;;;10.00;99.90;;;;;;5070649;28;20044;-84
2023/10/26 08:38:22;;;;;;;168.77;69.68;;;10.10;99.90;;;;;;5070318;28;20036;-86
2023/10/26 08:40:55;;;;;;;147.75;66.63;;;9.90;99.90;;;;;;5054169;28;20114;-85
2023/10/26 08:43:23;;;;;;;160.27;75.80;;;10.40;99.90;;;;;;5069987;28;20047;-86
2023/10/26 08:45:50;;;;;;;154.57;66.72;;;10.00;99.90;;;;;;5070415;28;20047;-86
2023/10/26 08:48:19;;;;;;;104.00;57.92;;;9.90;99.90;;;;;;5069997;28;20079;-86
2023/10/26 08:50:47;;;;;;;97.50;53.88;;;9.80;99.90;;;;;;5053183;28;20072;-85
2023/10/26 08:53:14;;;;;;;89.15;55.00;;;9.90;99.90;;;;;;5052903;28;20092;-85
2023/10/26 08:55:42;;;;;;;85.32;51.60;;;10.80;99.90;;;;;;5053064;28;20078;-85
2023/10/26 08:58:08;;;;;;;81.20;50.30;;;10.20;99.90;;;;;;5069874;28;20036;-86
2023/10/26 09:00:40;;;;;;;81.88;52.28;;;9.90;99.90;;;;;;5069816;28;20037;-85
2023/10/26 09:03:06;;;;;;;80.43;49.83;;;11.00;99.90;;;;;;5053257;28;20043;-86
2023/10/26 09:05:32;;;;;;;91.25;54.15;;;10.00;99.90;;;;;;5069514;28;20033;-86
2023/10/26 09:07:58;;;;;;;82.93;54.58;;;10.00;99.90;;;;;;5052482;28;20036;-85
2023/10/26 09:10:31;;;;;;;78.22;48.85;;;10.40;99.90;;;;;;5053049;28;20044;-85
2023/10/26 09:13:01;;;;;;;68.45;48.67;;;9.50;99.90;;;;;;5069358;28;20036;-85
2023/10/26 09:15:30;;;;;;;77.05;50.92;;;9.70;99.90;;;;;;5053207;28;20054;-86
2023/10/26 09:17:57;;;;;;;68.47;46.63;;;10.90;99.90;;;;;;5069221;28;20050;-85
2023/10/26 09:20:24;;;;;;;69.40;46.58;;;10.90;99.90;;;;;;5052809;28;20044;-85
2023/10/26 09:22:50;;;;;;;60.30;44.92;;;9.90;99.90;;;;;;5069339;28;20094;-87
2023/10/26 09:25:16;;;;;;;66.47;44.67;;;10.00;99.90;;;;;;5069356;28;20041;-86
2023/10/26 09:27:43;;;;;;;69.03;46.20;;;10.00;99.90;;;;;;5069375;28;20047;-86
2023/10/26 09:30:33;;;;;;;59.83;45.33;;;10.40;99.90;;;;;;5052864;28;20041;-85
2023/10/26 09:33:03;;;;;;;66.07;44.58;;;10.10;99.90;;;;;;5052342;28;20044;-85
2023/10/26 09:35:33;;;;;;;64.50;47.72;;;10.60;99.90;;;;;;5052168;28;20057;-85
2023/10/26 09:37:59;;;;;;;62.30;43.15;;;10.10;99.90;;;;;;5052364;28;20098;-85
2023/10/26 09:40:26;;;;;;;63.15;42.75;;;10.10;99.90;;;;;;5068729;28;20044;-85
2023/10/26 09:42:56;;;;;;;53.90;39.63;;;10.20;99.90;;;;;;5052434;28;20040;-85
2023/10/26 09:45:21;;;;;;;52.10;40.63;;;10.40;99.90;;;;;;5068646;28;20048;-85
2023/10/26 09:47:47;;;;;;;56.33;46.25;;;10.20;99.90;;;;;;5069209;28;20385;-86
2023/10/26 09:50:14;;;;;;;54.85;45.00;;;10.70;99.90;;;;;;5068161;28;20467;-86
2023/10/26 09:52:44;;;;;;;53.55;44.45;;;10.80;99.90;;;;;;5068821;28;20048;-85
2023/10/26 09:55:11;;;;;;;54.13;44.92;;;10.80;99.90;;;;;;5052451;28;20036;-86
2023/10/26 09:57:58;;;;;;;58.25;46.50;;;10.20;99.90;;;;;;5069742;28;20497;-86
2023/10/26 10:00:32;;;;;;;58.60;46.78;;;10.30;99.90;;;;;;5053068;28;20494;-86
2023/10/26 10:03:18;;;;;;;63.05;43.72;;;10.30;99.90;;;;;;5069546;28;20053;-86
2023/10/26 10:05:46;;;;;;;61.30;44.78;;;10.80;99.90;;;;;;5051184;28;20048;-87
2023/10/26 10:08:13;;;;;;;61.67;46.88;;;10.40;99.90;;;;;;5052060;28;20037;-86
2023/10/26 10:11:17;;;;;;;64.35;51.60;;;10.50;99.90;;;;;;5052012;28;20040;-86
2023/10/26 10:13:43;;;;;;;60.05;43.58;;;10.50;99.90;;;;;;5049283;28;20399;-86
2023/10/26 10:16:34;;;;;;;59.60;44.33;;;10.70;99.90;;;;;;5051812;28;20032;-85
2023/10/26 10:19:18;;;;;;;62.90;44.80;;;10.80;99.90;;;;;;5051573;28;20040;-86
2023/10/26 10:21:44;;;;;;;68.80;46.08;;;11.00;99.90;;;;;;5068470;28;20044;-86
2023/10/26 10:24:09;;;;;;;66.45;45.65;;;11.20;99.90;;;;;;5052381;28;20036;-85
2023/10/26 10:27:07;;;;;;;57.72;44.47;;;11.40;99.90;;;;;;5068539;28;20040;-85
2023/10/26 10:29:32;;;;;;;57.00;43.40;;;11.50;99.90;;;;;;5068708;28;20086;-84
2023/10/26 10:31:58;;;;;;;57.03;45.17;;;11.40;99.90;;;;;;5051859;28;20076;-85
2023/10/26 10:34:28;;;;;;;59.22;43.15;;;11.80;99.90;;;;;;5068138;28;20052;-85
2023/10/26 10:37:21;;;;;;;52.60;42.85;;;12.50;99.90;;;;;;5052138;28;20502;-85
2023/10/26 10:40:13;;;;;;;54.67;44.38;;;12.00;99.90;;;;;;5052146;28;20402;-85
2023/10/26 10:42:40;;;;;;;57.92;45.85;;;12.00;99.90;;;;;;5051583;28;20040;-85
2023/10/26 10:45:12;;;;;;;50.20;42.83;;;12.00;99.90;;;;;;5068199;28;20044;-86
2023/10/26 10:47:42;;;;;;;54.85;48.70;;;12.10;99.90;;;;;;5051252;28;20036;-86
2023/10/26 10:50:25;;;;;;;57.03;50.97;;;12.20;99.90;;;;;;5051830;28;20119;-85
2023/10/26 10:52:55;;;;;;;57.63;51.47;;;11.90;99.90;;;;;;5068303;28;20504;-85
2023/10/26 10:55:27;;;;;;;67.32;54.20;;;11.80;99.90;;;;;;5051768;28;20290;-85
2023/10/26 10:57:59;;;;;;;61.78;52.58;;;11.70;99.90;;;;;;5068584;28;20510;-85
2023/10/26 11:00:40;;;;;;;62.42;51.78;;;11.70;99.90;;;;;;5051592;28;20139;-85
2023/10/26 11:03:05;;;;;;;52.15;41.40;;;11.70;99.90;;;;;;5067667;28;20041;-86
2023/10/26 11:05:39;;;;;;;45.63;40.63;;;11.60;99.90;;;;;;5052770;28;20352;-85
2023/10/26 11:08:06;;;;;;;48.38;43.22;;;11.60;99.90;;;;;;5055665;28;20040;-86
2023/10/26 11:10:32;;;;;;;50.38;41.40;;;11.70;99.90;;;;;;5055410;28;20563;-85
2023/10/26 11:12:58;;;;;;;52.00;44.20;;;11.60;99.90;;;;;;5071950;28;20165;-86
2023/10/26 11:15:34;;;;;;;50.35;42.05;;;11.80;99.90;;;;;;5071818;28;20036;-85
2023/10/26 11:18:01;;;;;;;53.08;44.65;;;11.90;99.90;;;;;;5071665;28;20036;-85
2023/10/26 11:20:36;;;;;;;52.88;44.28;;;12.00;99.90;;;;;;5071951;28;20090;-85
2023/10/26 11:23:06;;;;;;;55.20;43.50;;;12.20;99.90;;;;;;5055471;28;20045;-86
2023/10/26 11:25:32;;;;;;;56.72;46.38;;;12.20;99.90;;;;;;5055267;28;20040;-85
2023/10/26 11:27:58;;;;;;;53.50;44.40;;;12.20;99.90;;;;;;5072183;28;20044;-84
2023/10/26 11:30:24;;;;;;;53.60;47.83;;;12.20;99.90;;;;;;5055662;28;20051;-86
2023/10/26 11:32:49;;;;;;;56.50;48.33;;;12.30;99.90;;;;;;5072577;28;20048;-86
2023/10/26 11:35:16;;;;;;;51.60;43.20;;;12.30;99.90;;;;;;5071410;28;20506;-85
2023/10/26 11:37:47;;;;;;;61.10;49.05;;;12.20;99.90;;;;;;5054871;28;20071;-86
2023/10/26 11:40:14;;;;;;;56.85;47.10;;;12.10;99.90;;;;;;5054673;28;20044;-86
2023/10/26 11:43:02;;;;;;;61.28;48.78;;;12.00;99.90;;;;;;5054463;28;20036;-85
2023/10/26 11:45:29;;;;;;;63.97;53.95;;;12.50;99.90;;;;;;5071070;28;20102;-85
2023/10/26 11:47:57;;;;;;;67.32;52.35;;;12.30;99.90;;;;;;5054060;28;20493;-85
2023/10/26 11:50:31;;;;;;;63.92;47.97;;;11.60;99.90;;;;;;5054789;28;20501;-85
2023/10/26 11:53:01;;;;;;;70.00;52.53;;;11.90;99.90;;;;;;5071349;28;20036;-85
2023/10/26 11:55:29;;;;;;;65.72;49.60;;;11.70;99.90;;;;;;5054769;28;20048;-86
2023/10/26 11:57:57;;;;;;;68.38;51.75;;;12.10;99.90;;;;;;5071461;28;20047;-85
2023/10/26 12:00:24;;;;;;;57.65;44.97;;;12.30;99.90;;;;;;5071402;28;20103;-85
2023/10/26 12:02:50;;;;;;;63.10;51.95;;;11.50;99.90;;;;;;5055388;28;20087;-85
2023/10/26 12:05:17;;;;;;;55.97;47.55;;;11.70;99.90;;;;;;5055138;28;20150;-85
2023/10/26 12:07:44;;;;;;;59.03;42.28;;;11.50;99.90;;;;;;5072134;28;20041;-86
2023/10/26 12:10:10;;;;;;;55.50;45.28;;;11.80;99.90;;;;;;5054565;28;20047;-85
2023/10/26 12:12:37;;;;;;;61.83;48.08;;;11.50;99.90;;;;;;5054237;28;20401;-85
2023/10/26 12:15:06;;;;;;;60.63;48.63;;;11.50;99.90;;;;;;5053715;28;20047;-85
2023/10/26 12:17:32;;;;;;;55.97;43.65;;;11.60;99.90;;;;;;5052613;28;20048;-85
2023/10/26 12:19:58;;;;;;;52.03;44.45;;;11.60;99.90;;;;;;5070667;28;20043;-86
2023/10/26 12:22:24;;;;;;;58.22;47.45;;;11.80;99.90;;;;;;5070690;28;20174;-85
2023/10/26 12:24:49;;;;;;;61.25;52.55;;;11.60;99.90;;;;;;5053845;28;20040;-86
2023/10/26 12:27:18;;;;;;;55.90;43.10;;;12.40;99.90;;;;;;5070842;28;20055;-86